createdAt,value
2018-10-11T00:09:27.736Z,24.4
2018-10-11T00:19:26.958Z,24.4
2018-10-11T00:29:26.184Z,24.4
2018-10-11T00:39:25.406Z,24.4
2018-10-11T00:49:24.702Z,24.4
2018-10-11T00:59:23.848Z,24.4
2018-10-11T01:09:23.174Z,24.4
2018-10-11T01:19:22.300Z,24.4
2018-10-11T01:29:21.525Z,24.4
2018-10-11T01:39:20.749Z,24.4
2018-10-11T01:49:19.974Z,24.4
2018-10-11T01:59:19.194Z,24.4
2018-10-11T02:09:18.458Z,24.3
2018-10-11T02:19:17.639Z,24.3
2018-10-11T02:29:16.857Z,24.3
2018-10-11T02:39:16.080Z,24.3
2018-10-11T02:49:15.309Z,24.3
2018-10-11T02:59:14.529Z,24.3
2018-10-11T03:09:13.755Z,24.3
2018-10-11T03:19:12.978Z,24.4
2018-10-11T03:29:12.203Z,24.4
2018-10-11T03:39:11.425Z,24.4
2018-10-11T03:49:10.647Z,24.4
2018-10-11T03:59:09.872Z,24.4
2018-10-11T04:09:09.103Z,24.4
2018-10-11T04:19:08.315Z,24.4
2018-10-11T04:29:07.540Z,24.4
2018-10-11T04:39:06.769Z,24.4
2018-10-11T04:49:06.003Z,24.3
2018-10-11T04:59:05.220Z,24.3
2018-10-11T05:09:04.439Z,24.3
2018-10-11T05:19:03.664Z,24.3
2018-10-11T05:29:02.886Z,24.1
2018-10-11T05:39:02.115Z,23.9
2018-10-11T05:49:01.344Z,24.2
2018-10-11T05:59:00.557Z,24.2
2018-10-11T06:08:59.787Z,24.1
2018-10-11T06:18:59.015Z,24.3
2018-10-11T06:28:58.235Z,24.4
2018-10-11T06:38:57.456Z,24.4
2018-10-11T06:48:56.679Z,24.4
2018-10-11T06:58:55.907Z,24.3
2018-10-11T07:08:55.130Z,24.4
2018-10-11T07:18:54.356Z,24.6
2018-10-11T07:28:53.581Z,24.5
2018-10-11T07:38:52.806Z,24.5
2018-10-11T07:48:52.043Z,24.8
2018-10-11T07:58:51.259Z,24.6
2018-10-11T08:08:50.506Z,24.3
2018-10-11T08:18:49.804Z,24.7
2018-10-11T08:28:48.938Z,24.6
2018-10-11T08:38:48.163Z,24.7
2018-10-11T08:48:47.391Z,24.8
2018-10-11T08:58:46.612Z,24.6
2018-10-11T09:08:45.847Z,24.6
2018-10-11T09:18:45.069Z,24.7
2018-10-11T09:28:44.300Z,24.9
2018-10-11T09:38:43.541Z,24.7
2018-10-11T09:48:42.795Z,24.8
2018-10-11T09:58:41.968Z,24.8
2018-10-11T10:08:41.186Z,24.8
2018-10-11T10:18:40.466Z,24.8
2018-10-11T10:28:39.635Z,24.8
2018-10-11T10:38:38.865Z,24.8
2018-10-11T10:48:38.118Z,24.8
2018-10-11T10:58:37.314Z,24.8
2018-10-11T11:08:36.541Z,24.8
2018-10-11T11:18:35.761Z,24.8
2018-10-11T11:28:34.981Z,24.8
2018-10-11T11:38:34.254Z,24.8
2018-10-11T11:48:33.429Z,24.8
2018-10-11T11:58:32.656Z,24.8
2018-10-11T12:08:31.878Z,24.9
2018-10-11T12:18:31.115Z,24.8
2018-10-11T12:28:30.481Z,24.8
2018-10-11T12:38:29.584Z,24.8
2018-10-11T12:48:28.776Z,24.8
2018-10-11T12:58:28.000Z,24.8
2018-10-11T13:08:27.219Z,24.7
2018-10-11T13:18:26.443Z,24.8
2018-10-11T13:28:25.672Z,24.8
2018-10-11T13:38:24.894Z,24.8
2018-10-11T13:48:24.119Z,24.7
2018-10-11T13:58:23.341Z,24.7
2018-10-11T14:08:22.571Z,24.7
2018-10-11T14:18:21.783Z,24.6
2018-10-11T14:28:21.014Z,24.7
2018-10-11T14:38:20.231Z,24.6
2018-10-11T14:48:19.457Z,24.6
2018-10-11T14:58:18.676Z,24.6
2018-10-11T15:08:17.901Z,24.6
2018-10-11T15:18:17.132Z,24.6
2018-10-11T15:28:16.352Z,24.6
2018-10-11T15:38:15.577Z,24.6
2018-10-11T15:48:14.812Z,24.7
2018-10-11T15:58:14.029Z,24.7
2018-10-11T16:08:13.258Z,24.7
2018-10-11T16:18:12.483Z,24.7
2018-10-11T16:28:11.706Z,24.6
2018-10-11T16:38:10.931Z,24.7
2018-10-11T16:48:10.158Z,24.6
2018-10-11T16:58:09.416Z,24.6
2018-10-11T17:08:08.616Z,24.6
2018-10-11T17:18:07.861Z,24.6
2018-10-11T17:28:07.059Z,24.6
2018-10-11T17:38:06.301Z,24.6
2018-10-11T17:48:05.521Z,24.6
2018-10-11T17:58:04.741Z,24.6
2018-10-11T18:08:03.981Z,24.6
2018-10-11T18:18:03.228Z,24.6
2018-10-11T18:28:02.425Z,24.6
2018-10-11T18:38:01.654Z,24.6
2018-10-11T18:48:00.881Z,24.6
2018-10-11T18:58:00.109Z,24.6
2018-10-11T19:07:59.331Z,24.6
2018-10-11T19:17:58.559Z,24.6
2018-10-11T19:27:57.780Z,24.6
2018-10-11T19:37:57.013Z,24.6
2018-10-11T19:47:56.230Z,24.6
2018-10-11T19:57:55.458Z,24.6
2018-10-11T20:07:54.761Z,24.6
2018-10-11T20:17:53.914Z,24.6
2018-10-11T20:27:53.130Z,24.6
2018-10-11T20:37:52.351Z,24.6
2018-10-11T20:47:51.580Z,24.6
2018-10-11T20:57:50.801Z,24.6
2018-10-11T21:07:50.023Z,24.6
2018-10-11T21:17:49.253Z,24.6
2018-10-11T21:27:48.487Z,24.6
2018-10-11T21:37:47.698Z,24.6
2018-10-11T21:47:46.921Z,24.6
2018-10-11T21:57:46.143Z,24.6
2018-10-11T22:07:45.371Z,24.6
2018-10-11T22:17:44.596Z,24.6
2018-10-11T22:27:43.821Z,24.6
2018-10-11T22:37:43.042Z,24.6
2018-10-11T22:47:42.260Z,24.6
2018-10-11T22:57:41.489Z,24.6
2018-10-11T23:07:40.712Z,24.6
2018-10-11T23:17:39.934Z,24.6
2018-10-11T23:27:39.153Z,24.6
2018-10-11T23:37:38.383Z,24.6
2018-10-11T23:47:37.600Z,24.6
2018-10-11T23:57:36.833Z,24.6
